sensor_id;sensor_type;location;lat;lon;timestamp;temperature;humidity
37002;DHT22;22913;51.910;8.374;2022-11-13T00:00:27;7.50;99.90
37002;DHT22;22913;51.910;8.374;2022-11-13T00:03:13;7.50;99.90
37002;DHT22;22913;51.910;8.374;2022-11-13T00:06:00;7.50;99.90
37002;DHT22;22913;51.910;8.374;2022-11-13T00:08:47;7.40;99.90
37002;DHT22;22913;51.910;8.374;2022-11-13T00:11:32;7.40;99.90
37002;DHT22;22913;51.910;8.374;2022-11-13T00:14:18;7.40;99.90
37002;DHT22;22913;51.910;8.374;2022-11-13T00:17:04;7.40;99.90
37002;DHT22;22913;51.910;8.374;2022-11-13T00:19:49;7.30;99.90
37002;DHT22;22913;51.910;8.374;2022-11-13T00:22:36;7.30;99.90
37002;DHT22;22913;51.910;8.374;2022-11-13T00:25:22;7.30;99.90
37002;DHT22;22913;51.910;8.374;2022-11-13T00:28:07;7.20;99.90
37002;DHT22;22913;51.910;8.374;2022-11-13T00:30:57;7.30;99.90
37002;DHT22;22913;51.910;8.374;2022-11-13T00:33:43;7.20;99.90
37002;DHT22;22913;51.910;8.374;2022-11-13T00:36:29;7.20;99.90
37002;DHT22;22913;51.910;8.374;2022-11-13T00:39:16;7.20;99.90
37002;DHT22;22913;51.910;8.374;2022-11-13T00:42:02;7.20;99.90
37002;DHT22;22913;51.910;8.374;2022-11-13T00:44:48;7.20;99.90
37002;DHT22;22913;51.910;8.374;2022-11-13T00:47:34;7.30;99.90
37002;DHT22;22913;51.910;8.374;2022-11-13T00:50:20;7.20;99.90
37002;DHT22;22913;51.910;8.374;2022-11-13T00:53:06;7.20;99.90
37002;DHT22;22913;51.910;8.374;2022-11-13T00:55:52;7.20;99.90
37002;DHT22;22913;51.910;8.374;2022-11-13T00:58:38;7.20;99.90
37002;DHT22;22913;51.910;8.374;2022-11-13T01:01:23;7.20;99.90
37002;DHT22;22913;51.910;8.374;2022-11-13T01:04:09;7.20;99.90
37002;DHT22;22913;51.910;8.374;2022-11-13T01:06:54;7.20;99.90
37002;DHT22;22913;51.910;8.374;2022-11-13T01:09:40;7.20;99.90
37002;DHT22;22913;51.910;8.374;2022-11-13T01:12:27;7.20;99.90
37002;DHT22;22913;51.910;8.374;2022-11-13T01:15:12;7.20;99.90
37002;DHT22;22913;51.910;8.374;2022-11-13T01:17:58;7.10;99.90
37002;DHT22;22913;51.910;8.374;2022-11-13T01:20:44;7.10;99.90
37002;DHT22;22913;51.910;8.374;2022-11-13T01:23:29;7.10;99.90
37002;DHT22;22913;51.910;8.374;2022-11-13T01:26:16;7.00;99.90
37002;DHT22;22913;51.910;8.374;2022-11-13T01:29:03;7.10;99.90
37002;DHT22;22913;51.910;8.374;2022-11-13T01:31:50;7.00;99.90
37002;DHT22;22913;51.910;8.374;2022-11-13T01:34:36;7.10;99.90
37002;DHT22;22913;51.910;8.374;2022-11-13T01:37:21;7.10;99.90
37002;DHT22;22913;51.910;8.374;2022-11-13T01:40:10;7.10;99.90
37002;DHT22;22913;51.910;8.374;2022-11-13T01:42:56;7.10;99.90
37002;DHT22;22913;51.910;8.374;2022-11-13T01:46:10;7.10;99.90
37002;DHT22;22913;51.910;8.374;2022-11-13T01:49:01;7.10;99.90
37002;DHT22;22913;51.910;8.374;2022-11-13T01:51:51;7.20;99.90
37002;DHT22;22913;51.910;8.374;2022-11-13T01:54:41;7.20;99.90
37002;DHT22;22913;51.910;8.374;2022-11-13T01:57:27;7.10;99.90
37002;DHT22;22913;51.910;8.374;2022-11-13T02:00:13;7.10;99.90
37002;DHT22;22913;51.910;8.374;2022-11-13T02:03:00;7.10;99.90
37002;DHT22;22913;51.910;8.374;2022-11-13T02:05:45;7.10;99.90
37002;DHT22;22913;51.910;8.374;2022-11-13T02:08:31;7.00;99.90
37002;DHT22;22913;51.910;8.374;2022-11-13T02:11:17;7.00;99.90
37002;DHT22;22913;51.910;8.374;2022-11-13T02:14:03;7.00;99.90
37002;DHT22;22913;51.910;8.374;2022-11-13T02:16:52;6.90;99.90
37002;DHT22;22913;51.910;8.374;2022-11-13T02:19:44;6.90;99.90
37002;DHT22;22913;51.910;8.374;2022-11-13T02:22:34;6.90;99.90
37002;DHT22;22913;51.910;8.374;2022-11-13T02:25:23;6.90;99.90
37002;DHT22;22913;51.910;8.374;2022-11-13T02:28:09;6.90;99.90
37002;DHT22;22913;51.910;8.374;2022-11-13T02:30:55;6.90;99.90
37002;DHT22;22913;51.910;8.374;2022-11-13T02:33:40;6.90;99.90
37002;DHT22;22913;51.910;8.374;2022-11-13T02:36:26;6.80;99.90
37002;DHT22;22913;51.910;8.374;2022-11-13T02:39:13;6.80;99.90
37002;DHT22;22913;51.910;8.374;2022-11-13T02:42:00;6.80;99.90
37002;DHT22;22913;51.910;8.374;2022-11-13T02:44:45;6.80;99.90
37002;DHT22;22913;51.910;8.374;2022-11-13T02:47:31;6.80;99.90
37002;DHT22;22913;51.910;8.374;2022-11-13T02:50:17;6.70;99.90
37002;DHT22;22913;51.910;8.374;2022-11-13T02:53:04;6.80;99.90
37002;DHT22;22913;51.910;8.374;2022-11-13T02:55:49;6.90;99.90
37002;DHT22;22913;51.910;8.374;2022-11-13T02:58:36;6.80;99.90
37002;DHT22;22913;51.910;8.374;2022-11-13T03:01:22;6.80;99.90
37002;DHT22;22913;51.910;8.374;2022-11-13T03:04:07;6.90;99.90
37002;DHT22;22913;51.910;8.374;2022-11-13T03:06:53;6.80;99.90
37002;DHT22;22913;51.910;8.374;2022-11-13T03:09:39;6.90;99.90
37002;DHT22;22913;51.910;8.374;2022-11-13T03:12:24;6.90;99.90
37002;DHT22;22913;51.910;8.374;2022-11-13T03:15:11;6.90;99.90
37002;DHT22;22913;51.910;8.374;2022-11-13T03:18:01;6.90;99.90
37002;DHT22;22913;51.910;8.374;2022-11-13T03:20:47;6.90;99.90
37002;DHT22;22913;51.910;8.374;2022-11-13T03:23:37;7.00;99.90
37002;DHT22;22913;51.910;8.374;2022-11-13T03:26:22;7.10;99.90
37002;DHT22;22913;51.910;8.374;2022-11-13T03:29:07;7.10;99.90
37002;DHT22;22913;51.910;8.374;2022-11-13T03:31:54;7.10;99.90
37002;DHT22;22913;51.910;8.374;2022-11-13T03:34:39;7.10;99.90
37002;DHT22;22913;51.910;8.374;2022-11-13T03:37:25;7.10;99.90
37002;DHT22;22913;51.910;8.374;2022-11-13T03:40:11;7.10;99.90
37002;DHT22;22913;51.910;8.374;2022-11-13T03:42:56;7.10;99.90
37002;DHT22;22913;51.910;8.374;2022-11-13T03:45:43;7.10;99.90
37002;DHT22;22913;51.910;8.374;2022-11-13T03:48:30;7.10;99.90
37002;DHT22;22913;51.910;8.374;2022-11-13T03:51:16;7.10;99.90
37002;DHT22;22913;51.910;8.374;2022-11-13T03:54:02;7.10;99.90
37002;DHT22;22913;51.910;8.374;2022-11-13T03:56:47;7.10;99.90
37002;DHT22;22913;51.910;8.374;2022-11-13T03:59:33;7.10;99.90
37002;DHT22;22913;51.910;8.374;2022-11-13T04:02:19;7.10;99.90
37002;DHT22;22913;51.910;8.374;2022-11-13T04:05:07;7.10;99.90
37002;DHT22;22913;51.910;8.374;2022-11-13T04:07:53;7.10;99.90
37002;DHT22;22913;51.910;8.374;2022-11-13T04:10:39;7.20;99.90
37002;DHT22;22913;51.910;8.374;2022-11-13T04:13:24;7.20;99.90
37002;DHT22;22913;51.910;8.374;2022-11-13T04:16:09;7.20;99.90
37002;DHT22;22913;51.910;8.374;2022-11-13T04:18:55;7.20;99.90
37002;DHT22;22913;51.910;8.374;2022-11-13T04:21:42;7.20;99.90
37002;DHT22;22913;51.910;8.374;2022-11-13T04:24:27;7.30;99.90
37002;DHT22;22913;51.910;8.374;2022-11-13T04:27:13;7.20;99.90
37002;DHT22;22913;51.910;8.374;2022-11-13T04:29:58;7.30;99.90
37002;DHT22;22913;51.910;8.374;2022-11-13T04:32:44;7.30;99.90
37002;DHT22;22913;51.910;8.374;2022-11-13T04:35:30;7.30;99.90
37002;DHT22;22913;51.910;8.374;2022-11-13T04:38:17;7.30;99.90
37002;DHT22;22913;51.910;8.374;2022-11-13T04:41:02;7.30;99.90
37002;DHT22;22913;51.910;8.374;2022-11-13T04:44:06;7.30;99.90
37002;DHT22;22913;51.910;8.374;2022-11-13T04:46:51;7.30;99.90
37002;DHT22;22913;51.910;8.374;2022-11-13T04:49:37;7.30;99.90
37002;DHT22;22913;51.910;8.374;2022-11-13T04:52:22;7.30;99.90
37002;DHT22;22913;51.910;8.374;2022-11-13T04:55:10;7.30;99.90
37002;DHT22;22913;51.910;8.374;2022-11-13T04:57:55;7.20;99.90
37002;DHT22;22913;51.910;8.374;2022-11-13T05:00:41;7.20;99.90
37002;DHT22;22913;51.910;8.374;2022-11-13T05:03:27;7.20;99.90
37002;DHT22;22913;51.910;8.374;2022-11-13T05:06:12;7.10;99.90
37002;DHT22;22913;51.910;8.374;2022-11-13T05:08:58;7.20;99.90
37002;DHT22;22913;51.910;8.374;2022-11-13T05:11:45;7.30;99.90
37002;DHT22;22913;51.910;8.374;2022-11-13T05:14:30;7.30;99.90
37002;DHT22;22913;51.910;8.374;2022-11-13T05:17:16;7.20;99.90
37002;DHT22;22913;51.910;8.374;2022-11-13T05:20:02;7.30;99.90
37002;DHT22;22913;51.910;8.374;2022-11-13T05:22:47;7.20;99.90
37002;DHT22;22913;51.910;8.374;2022-11-13T05:25:33;7.20;99.90
37002;DHT22;22913;51.910;8.374;2022-11-13T05:28:20;7.20;99.90
37002;DHT22;22913;51.910;8.374;2022-11-13T05:31:08;7.30;99.90
37002;DHT22;22913;51.910;8.374;2022-11-13T05:33:54;7.30;99.90
37002;DHT22;22913;51.910;8.374;2022-11-13T05:36:39;7.20;99.90
37002;DHT22;22913;51.910;8.374;2022-11-13T05:39:25;7.20;99.90
37002;DHT22;22913;51.910;8.374;2022-11-13T05:42:11;7.30;99.90
37002;DHT22;22913;51.910;8.374;2022-11-13T05:44:57;7.30;99.90
37002;DHT22;22913;51.910;8.374;2022-11-13T05:47:43;7.30;99.90
37002;DHT22;22913;51.910;8.374;2022-11-13T05:50:28;7.40;99.90
37002;DHT22;22913;51.910;8.374;2022-11-13T05:53:14;7.40;99.90
37002;DHT22;22913;51.910;8.374;2022-11-13T05:56:00;7.40;99.90
37002;DHT22;22913;51.910;8.374;2022-11-13T05:58:46;7.40;99.90
37002;DHT22;22913;51.910;8.374;2022-11-13T06:01:34;7.30;99.90
37002;DHT22;22913;51.910;8.374;2022-11-13T06:04:21;7.30;99.90
37002;DHT22;22913;51.910;8.374;2022-11-13T06:07:06;7.20;99.90
37002;DHT22;22913;51.910;8.374;2022-11-13T06:09:52;7.10;99.90
37002;DHT22;22913;51.910;8.374;2022-11-13T06:12:38;7.10;99.90
37002;DHT22;22913;51.910;8.374;2022-11-13T06:15:23;7.00;99.90
37002;DHT22;22913;51.910;8.374;2022-11-13T06:18:10;6.90;99.90
37002;DHT22;22913;51.910;8.374;2022-11-13T06:21:00;6.80;99.90
37002;DHT22;22913;51.910;8.374;2022-11-13T06:23:46;6.70;99.90
37002;DHT22;22913;51.910;8.374;2022-11-13T06:26:33;6.60;99.90
37002;DHT22;22913;51.910;8.374;2022-11-13T06:29:19;6.60;99.90
37002;DHT22;22913;51.910;8.374;2022-11-13T06:32:04;6.50;99.90
37002;DHT22;22913;51.910;8.374;2022-11-13T06:34:51;6.40;99.90
37002;DHT22;22913;51.910;8.374;2022-11-13T06:37:37;6.40;99.90
37002;DHT22;22913;51.910;8.374;2022-11-13T06:40:22;6.40;99.90
37002;DHT22;22913;51.910;8.374;2022-11-13T06:43:08;6.40;99.90
37002;DHT22;22913;51.910;8.374;2022-11-13T06:45:54;6.40;99.90
37002;DHT22;22913;51.910;8.374;2022-11-13T06:48:41;6.30;99.90
37002;DHT22;22913;51.910;8.374;2022-11-13T06:51:29;6.30;99.90
37002;DHT22;22913;51.910;8.374;2022-11-13T06:54:15;6.30;99.90
37002;DHT22;22913;51.910;8.374;2022-11-13T06:57:00;6.20;99.90
37002;DHT22;22913;51.910;8.374;2022-11-13T06:59:46;6.20;99.90
37002;DHT22;22913;51.910;8.374;2022-11-13T07:02:31;6.30;99.90
37002;DHT22;22913;51.910;8.374;2022-11-13T07:05:17;6.30;99.90
37002;DHT22;22913;51.910;8.374;2022-11-13T07:08:04;6.30;99.90
37002;DHT22;22913;51.910;8.374;2022-11-13T07:10:54;6.30;99.90
37002;DHT22;22913;51.910;8.374;2022-11-13T07:13:39;6.30;99.90
37002;DHT22;22913;51.910;8.374;2022-11-13T07:16:25;6.30;99.90
37002;DHT22;22913;51.910;8.374;2022-11-13T07:19:11;6.30;99.90
37002;DHT22;22913;51.910;8.374;2022-11-13T07:21:56;6.40;99.90
37002;DHT22;22913;51.910;8.374;2022-11-13T07:24:43;6.30;99.90
37002;DHT22;22913;51.910;8.374;2022-11-13T07:27:29;6.40;99.90
37002;DHT22;22913;51.910;8.374;2022-11-13T07:30:15;6.40;99.90
37002;DHT22;22913;51.910;8.374;2022-11-13T07:33:01;6.50;99.90
37002;DHT22;22913;51.910;8.374;2022-11-13T07:35:47;6.50;99.90
37002;DHT22;22913;51.910;8.374;2022-11-13T07:38:32;6.60;99.90
37002;DHT22;22913;51.910;8.374;2022-11-13T07:41:19;6.70;99.90
37002;DHT22;22913;51.910;8.374;2022-11-13T07:44:05;6.70;99.90
37002;DHT22;22913;51.910;8.374;2022-11-13T07:46:51;6.80;99.90
37002;DHT22;22913;51.910;8.374;2022-11-13T07:49:37;6.90;99.90
37002;DHT22;22913;51.910;8.374;2022-11-13T07:52:22;7.10;99.90
37002;DHT22;22913;51.910;8.374;2022-11-13T07:55:08;7.20;99.90
37002;DHT22;22913;51.910;8.374;2022-11-13T07:57:56;7.30;99.90
37002;DHT22;22913;51.910;8.374;2022-11-13T08:00:41;7.40;99.90
37002;DHT22;22913;51.910;8.374;2022-11-13T08:03:27;7.50;99.90
37002;DHT22;22913;51.910;8.374;2022-11-13T08:06:13;7.50;99.90
37002;DHT22;22913;51.910;8.374;2022-11-13T08:08:58;7.50;99.90
37002;DHT22;22913;51.910;8.374;2022-11-13T08:11:44;7.60;99.90
37002;DHT22;22913;51.910;8.374;2022-11-13T08:14:31;7.70;99.90
37002;DHT22;22913;51.910;8.374;2022-11-13T08:17:16;7.80;99.90
37002;DHT22;22913;51.910;8.374;2022-11-13T08:20:02;7.80;99.90
37002;DHT22;22913;51.910;8.374;2022-11-13T08:22:48;7.90;99.90
37002;DHT22;22913;51.910;8.374;2022-11-13T08:25:35;8.00;99.90
37002;DHT22;22913;51.910;8.374;2022-11-13T08:28:20;8.20;99.90
37002;DHT22;22913;51.910;8.374;2022-11-13T08:31:10;8.30;99.90
37002;DHT22;22913;51.910;8.374;2022-11-13T08:33:56;8.40;99.90
37002;DHT22;22913;51.910;8.374;2022-11-13T08:36:41;8.50;99.90
37002;DHT22;22913;51.910;8.374;2022-11-13T08:39:27;8.70;99.90
37002;DHT22;22913;51.910;8.374;2022-11-13T08:42:12;8.80;99.90
37002;DHT22;22913;51.910;8.374;2022-11-13T08:44:58;9.00;99.90
37002;DHT22;22913;51.910;8.374;2022-11-13T08:47:45;9.20;99.90
37002;DHT22;22913;51.910;8.374;2022-11-13T08:50:32;9.40;99.90
37002;DHT22;22913;51.910;8.374;2022-11-13T08:53:18;9.60;99.90
37002;DHT22;22913;51.910;8.374;2022-11-13T08:56:04;9.80;99.90
37002;DHT22;22913;51.910;8.374;2022-11-13T08:58:50;10.00;99.90
37002;DHT22;22913;51.910;8.374;2022-11-13T09:01:35;10.10;99.90
37002;DHT22;22913;51.910;8.374;2022-11-13T09:04:22;10.20;99.90
37002;DHT22;22913;51.910;8.374;2022-11-13T09:07:08;10.30;99.90
37002;DHT22;22913;51.910;8.374;2022-11-13T09:09:54;10.40;99.90
37002;DHT22;22913;51.910;8.374;2022-11-13T09:12:40;10.50;99.90
37002;DHT22;22913;51.910;8.374;2022-11-13T09:15:25;10.60;99.90
37002;DHT22;22913;51.910;8.374;2022-11-13T09:18:11;10.60;99.90
37002;DHT22;22913;51.910;8.374;2022-11-13T09:21:01;10.80;99.90
37002;DHT22;22913;51.910;8.374;2022-11-13T09:23:47;10.90;99.90
37002;DHT22;22913;51.910;8.374;2022-11-13T09:26:33;11.00;99.90
37002;DHT22;22913;51.910;8.374;2022-11-13T09:29:19;11.10;99.90
37002;DHT22;22913;51.910;8.374;2022-11-13T09:32:06;11.20;99.90
37002;DHT22;22913;51.910;8.374;2022-11-13T09:34:52;11.30;99.90
37002;DHT22;22913;51.910;8.374;2022-11-13T09:37:39;11.50;99.90
37002;DHT22;22913;51.910;8.374;2022-11-13T09:40:31;11.60;99.90
37002;DHT22;22913;51.910;8.374;2022-11-13T09:43:26;11.90;99.90
37002;DHT22;22913;51.910;8.374;2022-11-13T09:46:19;12.20;99.90
37002;DHT22;22913;51.910;8.374;2022-11-13T09:49:14;12.40;99.90
37002;DHT22;22913;51.910;8.374;2022-11-13T09:52:03;12.70;99.90
37002;DHT22;22913;51.910;8.374;2022-11-13T09:54:52;13.00;99.90
37002;DHT22;22913;51.910;8.374;2022-11-13T09:57:44;13.20;99.90
37002;DHT22;22913;51.910;8.374;2022-11-13T10:00:33;13.30;99.90
37002;DHT22;22913;51.910;8.374;2022-11-13T10:03:35;13.60;99.90
37002;DHT22;22913;51.910;8.374;2022-11-13T10:06:29;13.90;99.90
37002;DHT22;22913;51.910;8.374;2022-11-13T10:09:24;14.20;99.90
37002;DHT22;22913;51.910;8.374;2022-11-13T10:12:14;14.60;99.90
37002;DHT22;22913;51.910;8.374;2022-11-13T10:15:02;14.90;99.90
37002;DHT22;22913;51.910;8.374;2022-11-13T10:17:51;15.10;99.90
37002;DHT22;22913;51.910;8.374;2022-11-13T10:20:40;15.30;99.90
37002;DHT22;22913;51.910;8.374;2022-11-13T10:23:30;15.70;99.90
37002;DHT22;22913;51.910;8.374;2022-11-13T10:26:18;16.00;99.90
37002;DHT22;22913;51.910;8.374;2022-11-13T10:29:11;16.30;99.90
37002;DHT22;22913;51.910;8.374;2022-11-13T10:31:57;16.80;99.90
37002;DHT22;22913;51.910;8.374;2022-11-13T10:34:45;17.10;99.90
37002;DHT22;22913;51.910;8.374;2022-11-13T10:37:44;17.60;99.90
37002;DHT22;22913;51.910;8.374;2022-11-13T10:40:36;18.20;99.90
37002;DHT22;22913;51.910;8.374;2022-11-13T10:43:24;18.90;99.90
37002;DHT22;22913;51.910;8.374;2022-11-13T10:46:18;19.40;99.90
37002;DHT22;22913;51.910;8.374;2022-11-13T10:49:12;20.10;99.90
37002;DHT22;22913;51.910;8.374;2022-11-13T10:51:59;20.80;99.90
37002;DHT22;22913;51.910;8.374;2022-11-13T10:54:45;21.50;99.90
37002;DHT22;22913;51.910;8.374;2022-11-13T10:57:32;22.10;99.90
37002;DHT22;22913;51.910;8.374;2022-11-13T11:00:23;22.60;99.90
37002;DHT22;22913;51.910;8.374;2022-11-13T11:03:15;23.10;99.90
37002;DHT22;22913;51.910;8.374;2022-11-13T11:06:02;23.60;99.90
37002;DHT22;22913;51.910;8.374;2022-11-13T11:08:48;24.20;99.90
37002;DHT22;22913;51.910;8.374;2022-11-13T11:11:34;24.60;98.30
37002;DHT22;22913;51.910;8.374;2022-11-13T11:14:40;25.00;94.90
37002;DHT22;22913;51.910;8.374;2022-11-13T11:17:31;25.40;95.40
37002;DHT22;22913;51.910;8.374;2022-11-13T11:20:34;25.80;99.20
37002;DHT22;22913;51.910;8.374;2022-11-13T11:23:26;26.00;99.90
37002;DHT22;22913;51.910;8.374;2022-11-13T11:26:17;26.20;99.90
37002;DHT22;22913;51.910;8.374;2022-11-13T11:29:13;26.50;99.90
37002;DHT22;22913;51.910;8.374;2022-11-13T11:32:06;26.90;99.70
37002;DHT22;22913;51.910;8.374;2022-11-13T11:34:59;27.10;97.70
37002;DHT22;22913;51.910;8.374;2022-11-13T11:37:54;27.20;97.40
37002;DHT22;22913;51.910;8.374;2022-11-13T11:40:45;27.30;97.50
37002;DHT22;22913;51.910;8.374;2022-11-13T11:43:38;27.50;96.70
37002;DHT22;22913;51.910;8.374;2022-11-13T11:46:25;27.40;96.80
37002;DHT22;22913;51.910;8.374;2022-11-13T11:49:11;27.60;97.10
37002;DHT22;22913;51.910;8.374;2022-11-13T11:52:11;28.00;96.10
37002;DHT22;22913;51.910;8.374;2022-11-13T11:55:16;28.10;94.60
37002;DHT22;22913;51.910;8.374;2022-11-13T11:58:11;28.40;94.30
37002;DHT22;22913;51.910;8.374;2022-11-13T12:01:02;28.70;93.50
37002;DHT22;22913;51.910;8.374;2022-11-13T12:04:02;29.10;93.00
37002;DHT22;22913;51.910;8.374;2022-11-13T12:06:56;29.10;92.60
37002;DHT22;22913;51.910;8.374;2022-11-13T12:09:53;29.10;92.30
37002;DHT22;22913;51.910;8.374;2022-11-13T12:12:53;29.40;92.50
37002;DHT22;22913;51.910;8.374;2022-11-13T12:15:47;29.50;91.70
37002;DHT22;22913;51.910;8.374;2022-11-13T12:18:44;29.80;91.30
37002;DHT22;22913;51.910;8.374;2022-11-13T12:21:38;30.10;90.70
37002;DHT22;22913;51.910;8.374;2022-11-13T12:24:54;30.30;90.10
37002;DHT22;22913;51.910;8.374;2022-11-13T12:27:49;30.70;88.40
37002;DHT22;22913;51.910;8.374;2022-11-13T12:30:45;30.80;87.20
37002;DHT22;22913;51.910;8.374;2022-11-13T12:33:37;31.00;85.80
37002;DHT22;22913;51.910;8.374;2022-11-13T12:36:24;31.20;84.20
37002;DHT22;22913;51.910;8.374;2022-11-13T12:39:30;30.90;82.70
37002;DHT22;22913;51.910;8.374;2022-11-13T12:42:20;31.20;79.90
37002;DHT22;22913;51.910;8.374;2022-11-13T12:45:17;31.50;77.60
37002;DHT22;22913;51.910;8.374;2022-11-13T12:48:07;31.80;77.60
37002;DHT22;22913;51.910;8.374;2022-11-13T12:50:57;31.70;76.60
37002;DHT22;22913;51.910;8.374;2022-11-13T12:53:46;31.90;76.40
37002;DHT22;22913;51.910;8.374;2022-11-13T12:56:32;32.10;75.00
37002;DHT22;22913;51.910;8.374;2022-11-13T12:59:30;32.20;71.30
37002;DHT22;22913;51.910;8.374;2022-11-13T13:02:36;32.60;70.70
37002;DHT22;22913;51.910;8.374;2022-11-13T13:05:28;32.20;66.50
37002;DHT22;22913;51.910;8.374;2022-11-13T13:08:30;32.40;65.10
37002;DHT22;22913;51.910;8.374;2022-11-13T13:11:21;32.70;62.70
37002;DHT22;22913;51.910;8.374;2022-11-13T13:17:20;33.70;59.30
37002;DHT22;22913;51.910;8.374;2022-11-13T13:20:29;34.00;57.70
37002;DHT22;22913;51.910;8.374;2022-11-13T13:23:25;33.90;56.50
37002;DHT22;22913;51.910;8.374;2022-11-13T13:26:16;34.20;55.50
37002;DHT22;22913;51.910;8.374;2022-11-13T13:29:13;34.60;55.10
37002;DHT22;22913;51.910;8.374;2022-11-13T13:32:06;34.60;54.10
37002;DHT22;22913;51.910;8.374;2022-11-13T13:35:00;34.70;53.40
37002;DHT22;22913;51.910;8.374;2022-11-13T13:37:53;34.60;52.70
37002;DHT22;22913;51.910;8.374;2022-11-13T13:40:50;34.60;52.20
37002;DHT22;22913;51.910;8.374;2022-11-13T13:43:53;34.70;51.00
37002;DHT22;22913;51.910;8.374;2022-11-13T13:46:41;34.90;50.30
37002;DHT22;22913;51.910;8.374;2022-11-13T13:49:27;34.80;50.00
37002;DHT22;22913;51.910;8.374;2022-11-13T13:52:14;35.00;49.80
37002;DHT22;22913;51.910;8.374;2022-11-13T13:55:03;34.90;49.00
37002;DHT22;22913;51.910;8.374;2022-11-13T13:57:50;34.50;48.80
37002;DHT22;22913;51.910;8.374;2022-11-13T14:00:36;34.30;48.40
37002;DHT22;22913;51.910;8.374;2022-11-13T14:03:22;34.70;48.30
37002;DHT22;22913;51.910;8.374;2022-11-13T14:06:16;34.70;47.50
37002;DHT22;22913;51.910;8.374;2022-11-13T14:09:07;34.40;47.10
37002;DHT22;22913;51.910;8.374;2022-11-13T14:11:58;34.20;46.90
37002;DHT22;22913;51.910;8.374;2022-11-13T14:14:43;33.80;47.20
37002;DHT22;22913;51.910;8.374;2022-11-13T14:17:29;33.70;47.00
37002;DHT22;22913;51.910;8.374;2022-11-13T14:20:16;33.80;46.80
37002;DHT22;22913;51.910;8.374;2022-11-13T14:23:01;33.50;47.00
37002;DHT22;22913;51.910;8.374;2022-11-13T14:25:47;32.70;47.10
37002;DHT22;22913;51.910;8.374;2022-11-13T14:28:43;32.30;47.40
37002;DHT22;22913;51.910;8.374;2022-11-13T14:31:33;32.10;47.60
37002;DHT22;22913;51.910;8.374;2022-11-13T14:34:21;32.10;47.70
37002;DHT22;22913;51.910;8.374;2022-11-13T14:37:18;31.70;47.90
37002;DHT22;22913;51.910;8.374;2022-11-13T14:40:13;31.50;48.20
37002;DHT22;22913;51.910;8.374;2022-11-13T14:43:02;31.10;48.60
37002;DHT22;22913;51.910;8.374;2022-11-13T14:45:56;31.00;48.60
37002;DHT22;22913;51.910;8.374;2022-11-13T14:48:51;31.10;48.60
37002;DHT22;22913;51.910;8.374;2022-11-13T14:51:38;31.10;48.90
37002;DHT22;22913;51.910;8.374;2022-11-13T14:54:29;30.50;49.80
37002;DHT22;22913;51.910;8.374;2022-11-13T14:57:15;29.20;49.90
37002;DHT22;22913;51.910;8.374;2022-11-13T15:00:10;27.90;51.30
37002;DHT22;22913;51.910;8.374;2022-11-13T15:02:58;26.50;52.50
37002;DHT22;22913;51.910;8.374;2022-11-13T15:05:44;25.20;54.80
37002;DHT22;22913;51.910;8.374;2022-11-13T15:08:30;24.20;55.80
37002;DHT22;22913;51.910;8.374;2022-11-13T15:11:17;23.40;56.80
37002;DHT22;22913;51.910;8.374;2022-11-13T15:14:07;23.00;57.80
37002;DHT22;22913;51.910;8.374;2022-11-13T15:16:53;22.40;58.60
37002;DHT22;22913;51.910;8.374;2022-11-13T15:19:40;21.90;60.80
37002;DHT22;22913;51.910;8.374;2022-11-13T15:22:26;21.50;62.00
37002;DHT22;22913;51.910;8.374;2022-11-13T15:25:13;21.10;63.00
37002;DHT22;22913;51.910;8.374;2022-11-13T15:27:59;20.60;64.50
37002;DHT22;22913;51.910;8.374;2022-11-13T15:30:45;20.10;65.90
37002;DHT22;22913;51.910;8.374;2022-11-13T15:33:30;19.60;67.90
37002;DHT22;22913;51.910;8.374;2022-11-13T15:36:17;19.20;69.90
37002;DHT22;22913;51.910;8.374;2022-11-13T15:39:03;18.80;72.00
37002;DHT22;22913;51.910;8.374;2022-11-13T15:41:48;18.50;74.00
37002;DHT22;22913;51.910;8.374;2022-11-13T15:44:34;18.10;76.30
37002;DHT22;22913;51.910;8.374;2022-11-13T15:47:28;17.80;78.30
37002;DHT22;22913;51.910;8.374;2022-11-13T15:50:13;17.60;80.70
37002;DHT22;22913;51.910;8.374;2022-11-13T15:53:01;17.40;82.80
37002;DHT22;22913;51.910;8.374;2022-11-13T15:55:47;17.20;85.20
37002;DHT22;22913;51.910;8.374;2022-11-13T15:58:32;16.90;87.50
37002;DHT22;22913;51.910;8.374;2022-11-13T16:01:18;16.80;89.00
37002;DHT22;22913;51.910;8.374;2022-11-13T16:04:04;16.60;90.40
37002;DHT22;22913;51.910;8.374;2022-11-13T16:06:49;16.50;91.00
37002;DHT22;22913;51.910;8.374;2022-11-13T16:09:36;16.30;91.90
37002;DHT22;22913;51.910;8.374;2022-11-13T16:12:22;16.00;93.00
37002;DHT22;22913;51.910;8.374;2022-11-13T16:15:08;15.90;93.90
37002;DHT22;22913;51.910;8.374;2022-11-13T16:17:57;15.80;94.70
37002;DHT22;22913;51.910;8.374;2022-11-13T16:20:43;15.60;95.70
37002;DHT22;22913;51.910;8.374;2022-11-13T16:23:28;15.50;96.60
37002;DHT22;22913;51.910;8.374;2022-11-13T16:26:18;15.40;97.20
37002;DHT22;22913;51.910;8.374;2022-11-13T16:29:13;15.30;97.70
37002;DHT22;22913;51.910;8.374;2022-11-13T16:32:00;15.20;98.50
37002;DHT22;22913;51.910;8.374;2022-11-13T16:34:46;15.00;99.40
37002;DHT22;22913;51.910;8.374;2022-11-13T16:37:32;14.90;99.90
37002;DHT22;22913;51.910;8.374;2022-11-13T16:40:19;14.70;99.90
37002;DHT22;22913;51.910;8.374;2022-11-13T16:43:07;14.60;99.90
37002;DHT22;22913;51.910;8.374;2022-11-13T16:45:53;14.50;99.90
37002;DHT22;22913;51.910;8.374;2022-11-13T16:48:38;14.30;99.90
37002;DHT22;22913;51.910;8.374;2022-11-13T16:51:25;14.10;99.90
37002;DHT22;22913;51.910;8.374;2022-11-13T16:54:10;14.00;99.90
37002;DHT22;22913;51.910;8.374;2022-11-13T16:56:56;13.90;99.90
37002;DHT22;22913;51.910;8.374;2022-11-13T16:59:43;13.80;99.90
37002;DHT22;22913;51.910;8.374;2022-11-13T17:02:29;13.70;99.90
37002;DHT22;22913;51.910;8.374;2022-11-13T17:05:16;13.60;99.90
37002;DHT22;22913;51.910;8.374;2022-11-13T17:08:01;13.50;99.90
37002;DHT22;22913;51.910;8.374;2022-11-13T17:10:55;13.40;99.90
37002;DHT22;22913;51.910;8.374;2022-11-13T17:13:40;13.20;99.90
37002;DHT22;22913;51.910;8.374;2022-11-13T17:16:29;13.10;99.90
37002;DHT22;22913;51.910;8.374;2022-11-13T17:19:15;13.00;99.90
37002;DHT22;22913;51.910;8.374;2022-11-13T17:22:01;12.90;99.90
37002;DHT22;22913;51.910;8.374;2022-11-13T17:24:47;12.80;99.90
37002;DHT22;22913;51.910;8.374;2022-11-13T17:27:33;12.70;99.90
37002;DHT22;22913;51.910;8.374;2022-11-13T17:30:18;12.50;99.90
37002;DHT22;22913;51.910;8.374;2022-11-13T17:33:06;12.30;99.90
37002;DHT22;22913;51.910;8.374;2022-11-13T17:35:55;12.20;99.90
37002;DHT22;22913;51.910;8.374;2022-11-13T17:38:41;12.10;99.90
37002;DHT22;22913;51.910;8.374;2022-11-13T17:41:26;11.90;99.90
37002;DHT22;22913;51.910;8.374;2022-11-13T17:44:12;11.80;99.90
37002;DHT22;22913;51.910;8.374;2022-11-13T17:46:57;11.70;99.90
37002;DHT22;22913;51.910;8.374;2022-11-13T17:49:44;11.60;99.90
37002;DHT22;22913;51.910;8.374;2022-11-13T17:52:30;11.50;99.90